sensor_id;sensor_type;location;lat;lon;timestamp;temperature;humidity
13462;DHT22;6803;45.264;5.468;2023-08-06T00:00:57;15.90;99.90
13462;DHT22;6803;45.264;5.468;2023-08-06T00:03:28;15.90;99.90
13462;DHT22;6803;45.264;5.468;2023-08-06T00:05:58;15.80;99.90
13462;DHT22;6803;45.264;5.468;2023-08-06T00:08:29;15.80;99.90
13462;DHT22;6803;45.264;5.468;2023-08-06T00:11:00;15.70;99.90
13462;DHT22;6803;45.264;5.468;2023-08-06T00:13:31;15.50;99.90
13462;DHT22;6803;45.264;5.468;2023-08-06T00:16:10;15.50;99.90
13462;DHT22;6803;45.264;5.468;2023-08-06T00:18:42;15.40;99.90
13462;DHT22;6803;45.264;5.468;2023-08-06T00:21:12;15.40;99.90
13462;DHT22;6803;45.264;5.468;2023-08-06T00:23:44;15.40;99.90
13462;DHT22;6803;45.264;5.468;2023-08-06T00:26:15;15.40;99.90
13462;DHT22;6803;45.264;5.468;2023-08-06T00:28:45;15.50;99.90
13462;DHT22;6803;45.264;5.468;2023-08-06T00:31:16;15.60;99.90
13462;DHT22;6803;45.264;5.468;2023-08-06T00:33:47;15.50;99.90
13462;DHT22;6803;45.264;5.468;2023-08-06T00:36:18;15.50;99.90
13462;DHT22;6803;45.264;5.468;2023-08-06T00:38:48;15.50;99.90
13462;DHT22;6803;45.264;5.468;2023-08-06T00:41:19;15.60;99.90
13462;DHT22;6803;45.264;5.468;2023-08-06T00:43:50;15.60;99.90
13462;DHT22;6803;45.264;5.468;2023-08-06T00:46:21;15.70;99.90
13462;DHT22;6803;45.264;5.468;2023-08-06T00:48:52;15.60;99.90
13462;DHT22;6803;45.264;5.468;2023-08-06T00:51:23;15.50;99.90
13462;DHT22;6803;45.264;5.468;2023-08-06T00:53:55;15.30;99.90
13462;DHT22;6803;45.264;5.468;2023-08-06T00:56:27;15.40;99.90
13462;DHT22;6803;45.264;5.468;2023-08-06T00:58:57;15.60;99.90
13462;DHT22;6803;45.264;5.468;2023-08-06T01:01:28;15.70;99.90
13462;DHT22;6803;45.264;5.468;2023-08-06T01:03:59;15.70;99.90
13462;DHT22;6803;45.264;5.468;2023-08-06T01:09:19;15.50;99.90
13462;DHT22;6803;45.264;5.468;2023-08-06T01:11:54;15.50;99.90
13462;DHT22;6803;45.264;5.468;2023-08-06T01:14:28;15.50;99.90
13462;DHT22;6803;45.264;5.468;2023-08-06T01:17:00;15.50;99.90
13462;DHT22;6803;45.264;5.468;2023-08-06T01:19:32;15.60;99.90
13462;DHT22;6803;45.264;5.468;2023-08-06T01:22:02;15.60;99.90
13462;DHT22;6803;45.264;5.468;2023-08-06T01:24:34;15.50;99.90
13462;DHT22;6803;45.264;5.468;2023-08-06T01:27:26;15.50;99.90
13462;DHT22;6803;45.264;5.468;2023-08-06T01:30:02;15.50;99.90
13462;DHT22;6803;45.264;5.468;2023-08-06T01:32:35;15.50;99.90
13462;DHT22;6803;45.264;5.468;2023-08-06T01:35:09;15.40;99.90
13462;DHT22;6803;45.264;5.468;2023-08-06T01:37:41;15.30;99.90
13462;DHT22;6803;45.264;5.468;2023-08-06T01:40:14;15.30;99.90
13462;DHT22;6803;45.264;5.468;2023-08-06T01:42:44;15.30;99.90
13462;DHT22;6803;45.264;5.468;2023-08-06T01:45:15;15.30;99.90
13462;DHT22;6803;45.264;5.468;2023-08-06T01:47:46;15.10;99.90
13462;DHT22;6803;45.264;5.468;2023-08-06T01:50:17;15.10;99.90
13462;DHT22;6803;45.264;5.468;2023-08-06T01:52:48;15.10;99.90
13462;DHT22;6803;45.264;5.468;2023-08-06T01:55:18;15.10;99.90
13462;DHT22;6803;45.264;5.468;2023-08-06T01:57:49;15.20;99.90
13462;DHT22;6803;45.264;5.468;2023-08-06T02:00:20;15.20;99.90
13462;DHT22;6803;45.264;5.468;2023-08-06T02:02:51;15.20;99.90
13462;DHT22;6803;45.264;5.468;2023-08-06T02:05:22;15.30;99.90
13462;DHT22;6803;45.264;5.468;2023-08-06T02:07:52;15.30;99.90
13462;DHT22;6803;45.264;5.468;2023-08-06T02:10:23;15.40;99.90
13462;DHT22;6803;45.264;5.468;2023-08-06T02:12:54;15.30;99.90
13462;DHT22;6803;45.264;5.468;2023-08-06T02:15:25;15.40;99.90
13462;DHT22;6803;45.264;5.468;2023-08-06T02:17:55;15.50;99.90
13462;DHT22;6803;45.264;5.468;2023-08-06T02:20:26;15.60;99.90
13462;DHT22;6803;45.264;5.468;2023-08-06T02:22:57;15.70;99.90
13462;DHT22;6803;45.264;5.468;2023-08-06T02:25:28;15.60;99.90
13462;DHT22;6803;45.264;5.468;2023-08-06T02:27:58;15.60;99.90
13462;DHT22;6803;45.264;5.468;2023-08-06T02:30:29;15.50;99.90
13462;DHT22;6803;45.264;5.468;2023-08-06T02:33:00;15.20;99.90
13462;DHT22;6803;45.264;5.468;2023-08-06T02:35:31;15.00;99.90
13462;DHT22;6803;45.264;5.468;2023-08-06T02:38:01;15.00;99.90
13462;DHT22;6803;45.264;5.468;2023-08-06T02:40:32;15.00;99.90
13462;DHT22;6803;45.264;5.468;2023-08-06T02:43:03;15.00;99.90
13462;DHT22;6803;45.264;5.468;2023-08-06T02:45:33;15.00;99.90
13462;DHT22;6803;45.264;5.468;2023-08-06T02:48:05;14.90;99.90
13462;DHT22;6803;45.264;5.468;2023-08-06T02:50:40;14.90;99.90
13462;DHT22;6803;45.264;5.468;2023-08-06T02:53:10;14.90;99.90
13462;DHT22;6803;45.264;5.468;2023-08-06T02:58:24;14.60;99.90
13462;DHT22;6803;45.264;5.468;2023-08-06T03:01:01;14.70;99.90
13462;DHT22;6803;45.264;5.468;2023-08-06T03:03:33;14.60;99.90
13462;DHT22;6803;45.264;5.468;2023-08-06T03:06:04;14.50;99.90
13462;DHT22;6803;45.264;5.468;2023-08-06T03:08:35;14.40;99.90
13462;DHT22;6803;45.264;5.468;2023-08-06T03:11:06;14.30;99.90
13462;DHT22;6803;45.264;5.468;2023-08-06T03:13:36;14.40;99.90
13462;DHT22;6803;45.264;5.468;2023-08-06T03:16:07;14.30;99.90
13462;DHT22;6803;45.264;5.468;2023-08-06T03:18:38;14.20;99.90
13462;DHT22;6803;45.264;5.468;2023-08-06T03:21:09;14.10;99.90
13462;DHT22;6803;45.264;5.468;2023-08-06T03:23:40;14.50;99.90
13462;DHT22;6803;45.264;5.468;2023-08-06T03:26:11;15.20;99.90
13462;DHT22;6803;45.264;5.468;2023-08-06T03:28:42;15.60;99.90
13462;DHT22;6803;45.264;5.468;2023-08-06T03:31:13;15.60;99.90
13462;DHT22;6803;45.264;5.468;2023-08-06T03:33:44;15.90;99.90
13462;DHT22;6803;45.264;5.468;2023-08-06T03:36:14;15.90;99.90
13462;DHT22;6803;45.264;5.468;2023-08-06T03:38:45;15.90;99.90
13462;DHT22;6803;45.264;5.468;2023-08-06T03:41:16;15.90;99.90
13462;DHT22;6803;45.264;5.468;2023-08-06T03:43:47;16.00;99.90
13462;DHT22;6803;45.264;5.468;2023-08-06T03:46:17;15.90;99.90
13462;DHT22;6803;45.264;5.468;2023-08-06T03:48:48;15.90;99.90
13462;DHT22;6803;45.264;5.468;2023-08-06T03:51:19;15.90;99.90
13462;DHT22;6803;45.264;5.468;2023-08-06T03:53:49;15.90;99.90
13462;DHT22;6803;45.264;5.468;2023-08-06T03:56:20;15.90;99.90
13462;DHT22;6803;45.264;5.468;2023-08-06T03:58:51;15.90;99.90
13462;DHT22;6803;45.264;5.468;2023-08-06T04:01:22;15.80;99.90
13462;DHT22;6803;45.264;5.468;2023-08-06T04:03:52;15.80;99.90
13462;DHT22;6803;45.264;5.468;2023-08-06T04:06:23;15.80;99.90
13462;DHT22;6803;45.264;5.468;2023-08-06T04:08:54;15.80;99.90
13462;DHT22;6803;45.264;5.468;2023-08-06T04:11:24;15.70;99.90
13462;DHT22;6803;45.264;5.468;2023-08-06T04:13:55;15.70;99.90
13462;DHT22;6803;45.264;5.468;2023-08-06T04:16:26;15.70;99.90
13462;DHT22;6803;45.264;5.468;2023-08-06T04:18:57;15.70;99.90
13462;DHT22;6803;45.264;5.468;2023-08-06T04:21:28;15.80;99.90
13462;DHT22;6803;45.264;5.468;2023-08-06T04:23:59;15.80;99.90
13462;DHT22;6803;45.264;5.468;2023-08-06T04:26:30;15.60;99.90
13462;DHT22;6803;45.264;5.468;2023-08-06T04:29:01;15.70;99.90
13462;DHT22;6803;45.264;5.468;2023-08-06T04:31:31;15.60;99.90
13462;DHT22;6803;45.264;5.468;2023-08-06T04:34:02;15.60;99.90
13462;DHT22;6803;45.264;5.468;2023-08-06T04:36:33;15.50;99.90
13462;DHT22;6803;45.264;5.468;2023-08-06T04:39:04;15.30;99.90
13462;DHT22;6803;45.264;5.468;2023-08-06T04:41:35;15.30;99.90
13462;DHT22;6803;45.264;5.468;2023-08-06T04:44:05;15.50;99.90
13462;DHT22;6803;45.264;5.468;2023-08-06T04:46:36;15.40;99.90
13462;DHT22;6803;45.264;5.468;2023-08-06T04:49:07;15.40;99.90
13462;DHT22;6803;45.264;5.468;2023-08-06T04:51:37;15.40;99.90
13462;DHT22;6803;45.264;5.468;2023-08-06T04:54:08;15.50;99.90
13462;DHT22;6803;45.264;5.468;2023-08-06T04:56:39;15.50;99.90
13462;DHT22;6803;45.264;5.468;2023-08-06T04:59:10;15.50;99.90
13462;DHT22;6803;45.264;5.468;2023-08-06T05:01:41;15.70;99.90
13462;DHT22;6803;45.264;5.468;2023-08-06T05:04:11;15.80;99.90
13462;DHT22;6803;45.264;5.468;2023-08-06T05:06:42;15.70;99.90
13462;DHT22;6803;45.264;5.468;2023-08-06T05:09:13;15.70;99.90
13462;DHT22;6803;45.264;5.468;2023-08-06T05:11:44;15.80;99.90
13462;DHT22;6803;45.264;5.468;2023-08-06T05:14:15;15.90;99.90
13462;DHT22;6803;45.264;5.468;2023-08-06T05:16:45;15.80;99.90
13462;DHT22;6803;45.264;5.468;2023-08-06T05:19:16;15.70;99.90
13462;DHT22;6803;45.264;5.468;2023-08-06T05:21:47;15.80;99.90
13462;DHT22;6803;45.264;5.468;2023-08-06T05:24:18;15.70;99.90
13462;DHT22;6803;45.264;5.468;2023-08-06T05:26:50;15.70;99.90
13462;DHT22;6803;45.264;5.468;2023-08-06T05:29:21;15.70;99.90
13462;DHT22;6803;45.264;5.468;2023-08-06T05:31:51;15.70;99.90
13462;DHT22;6803;45.264;5.468;2023-08-06T05:34:23;15.70;99.90
13462;DHT22;6803;45.264;5.468;2023-08-06T05:36:54;15.70;99.90
13462;DHT22;6803;45.264;5.468;2023-08-06T05:39:25;15.80;99.90
13462;DHT22;6803;45.264;5.468;2023-08-06T05:41:56;15.80;99.90
13462;DHT22;6803;45.264;5.468;2023-08-06T05:44:26;15.80;99.90
13462;DHT22;6803;45.264;5.468;2023-08-06T05:46:58;16.00;99.90
13462;DHT22;6803;45.264;5.468;2023-08-06T05:49:28;16.00;99.90
13462;DHT22;6803;45.264;5.468;2023-08-06T05:51:59;16.00;99.90
13462;DHT22;6803;45.264;5.468;2023-08-06T05:54:30;16.10;99.90
13462;DHT22;6803;45.264;5.468;2023-08-06T05:57:00;16.20;99.90
13462;DHT22;6803;45.264;5.468;2023-08-06T05:59:31;16.20;99.90
13462;DHT22;6803;45.264;5.468;2023-08-06T06:02:02;16.30;99.90
13462;DHT22;6803;45.264;5.468;2023-08-06T06:04:33;16.40;99.90
13462;DHT22;6803;45.264;5.468;2023-08-06T06:07:05;16.40;99.90
13462;DHT22;6803;45.264;5.468;2023-08-06T06:09:35;16.50;99.90
13462;DHT22;6803;45.264;5.468;2023-08-06T06:12:08;16.60;99.90
13462;DHT22;6803;45.264;5.468;2023-08-06T06:14:40;16.70;99.90
13462;DHT22;6803;45.264;5.468;2023-08-06T06:17:12;16.80;99.90
13462;DHT22;6803;45.264;5.468;2023-08-06T06:19:43;16.70;99.90
13462;DHT22;6803;45.264;5.468;2023-08-06T06:22:14;16.60;99.90
13462;DHT22;6803;45.264;5.468;2023-08-06T06:24:45;16.50;99.90
13462;DHT22;6803;45.264;5.468;2023-08-06T06:27:16;16.40;99.90
13462;DHT22;6803;45.264;5.468;2023-08-06T06:29:47;16.50;99.90
13462;DHT22;6803;45.264;5.468;2023-08-06T06:32:18;16.50;99.90
13462;DHT22;6803;45.264;5.468;2023-08-06T06:34:49;16.40;99.90
13462;DHT22;6803;45.264;5.468;2023-08-06T06:37:21;16.30;99.90
13462;DHT22;6803;45.264;5.468;2023-08-06T06:39:52;16.30;99.90
13462;DHT22;6803;45.264;5.468;2023-08-06T06:42:24;16.10;99.90
13462;DHT22;6803;45.264;5.468;2023-08-06T06:44:55;16.00;99.90
13462;DHT22;6803;45.264;5.468;2023-08-06T06:47:27;15.90;99.90
13462;DHT22;6803;45.264;5.468;2023-08-06T06:49:58;15.90;99.90
13462;DHT22;6803;45.264;5.468;2023-08-06T06:52:30;15.90;99.90
13462;DHT22;6803;45.264;5.468;2023-08-06T06:55:02;15.80;99.90
13462;DHT22;6803;45.264;5.468;2023-08-06T06:57:33;16.00;99.90
13462;DHT22;6803;45.264;5.468;2023-08-06T07:00:06;16.10;99.90
13462;DHT22;6803;45.264;5.468;2023-08-06T07:02:37;16.20;99.90
13462;DHT22;6803;45.264;5.468;2023-08-06T07:05:09;16.70;99.90
13462;DHT22;6803;45.264;5.468;2023-08-06T07:07:40;16.70;99.90
13462;DHT22;6803;45.264;5.468;2023-08-06T07:10:12;16.90;99.90
13462;DHT22;6803;45.264;5.468;2023-08-06T07:12:43;16.90;99.90
13462;DHT22;6803;45.264;5.468;2023-08-06T07:15:15;17.30;99.90
13462;DHT22;6803;45.264;5.468;2023-08-06T07:17:47;17.00;99.90
13462;DHT22;6803;45.264;5.468;2023-08-06T07:20:18;17.10;99.90
13462;DHT22;6803;45.264;5.468;2023-08-06T07:22:50;17.20;99.90
13462;DHT22;6803;45.264;5.468;2023-08-06T07:25:21;17.30;99.90
13462;DHT22;6803;45.264;5.468;2023-08-06T07:27:52;17.40;99.90
13462;DHT22;6803;45.264;5.468;2023-08-06T07:30:23;17.30;99.90
13462;DHT22;6803;45.264;5.468;2023-08-06T07:32:54;17.30;99.90
13462;DHT22;6803;45.264;5.468;2023-08-06T07:35:28;17.40;99.90
13462;DHT22;6803;45.264;5.468;2023-08-06T07:37:58;17.60;99.90
13462;DHT22;6803;45.264;5.468;2023-08-06T07:40:30;17.30;99.90
13462;DHT22;6803;45.264;5.468;2023-08-06T07:43:02;17.20;99.90
13462;DHT22;6803;45.264;5.468;2023-08-06T07:45:35;17.10;99.90
13462;DHT22;6803;45.264;5.468;2023-08-06T07:48:06;16.80;99.90
13462;DHT22;6803;45.264;5.468;2023-08-06T07:50:37;16.80;99.90
13462;DHT22;6803;45.264;5.468;2023-08-06T07:53:08;17.10;99.90
13462;DHT22;6803;45.264;5.468;2023-08-06T07:55:39;16.90;99.90
13462;DHT22;6803;45.264;5.468;2023-08-06T07:58:12;16.90;99.90
13462;DHT22;6803;45.264;5.468;2023-08-06T08:00:43;16.50;99.90
13462;DHT22;6803;45.264;5.468;2023-08-06T08:03:15;16.60;99.90
13462;DHT22;6803;45.264;5.468;2023-08-06T08:05:46;16.60;99.90
13462;DHT22;6803;45.264;5.468;2023-08-06T08:08:17;17.00;99.90
13462;DHT22;6803;45.264;5.468;2023-08-06T08:10:49;17.60;99.90
13462;DHT22;6803;45.264;5.468;2023-08-06T08:13:19;18.30;99.90
13462;DHT22;6803;45.264;5.468;2023-08-06T08:15:50;18.20;99.90
13462;DHT22;6803;45.264;5.468;2023-08-06T08:18:22;17.80;99.90
13462;DHT22;6803;45.264;5.468;2023-08-06T08:20:53;17.80;99.90
13462;DHT22;6803;45.264;5.468;2023-08-06T08:23:24;17.90;99.90
13462;DHT22;6803;45.264;5.468;2023-08-06T08:25:55;18.20;99.90
13462;DHT22;6803;45.264;5.468;2023-08-06T08:28:26;18.30;99.90
13462;DHT22;6803;45.264;5.468;2023-08-06T08:30:56;18.00;99.90
13462;DHT22;6803;45.264;5.468;2023-08-06T08:33:27;18.10;99.90
13462;DHT22;6803;45.264;5.468;2023-08-06T08:35:58;18.40;99.90
13462;DHT22;6803;45.264;5.468;2023-08-06T08:38:29;18.90;99.90
13462;DHT22;6803;45.264;5.468;2023-08-06T08:40:59;18.80;99.90
13462;DHT22;6803;45.264;5.468;2023-08-06T08:43:30;18.60;99.90
13462;DHT22;6803;45.264;5.468;2023-08-06T08:46:03;18.50;99.90
13462;DHT22;6803;45.264;5.468;2023-08-06T08:48:35;18.20;99.90
13462;DHT22;6803;45.264;5.468;2023-08-06T08:51:07;18.50;99.90
13462;DHT22;6803;45.264;5.468;2023-08-06T08:53:39;18.40;99.90
13462;DHT22;6803;45.264;5.468;2023-08-06T08:56:12;18.30;99.90
13462;DHT22;6803;45.264;5.468;2023-08-06T08:58:44;18.40;99.90
13462;DHT22;6803;45.264;5.468;2023-08-06T09:01:15;18.60;99.90
13462;DHT22;6803;45.264;5.468;2023-08-06T09:03:47;18.20;99.90
13462;DHT22;6803;45.264;5.468;2023-08-06T09:06:18;18.10;99.90
13462;DHT22;6803;45.264;5.468;2023-08-06T09:08:54;18.20;99.90
13462;DHT22;6803;45.264;5.468;2023-08-06T09:11:26;18.10;99.90
13462;DHT22;6803;45.264;5.468;2023-08-06T09:13:58;18.20;99.90
13462;DHT22;6803;45.264;5.468;2023-08-06T09:16:30;18.20;99.90
13462;DHT22;6803;45.264;5.468;2023-08-06T09:19:10;18.80;99.90
13462;DHT22;6803;45.264;5.468;2023-08-06T09:21:42;19.00;99.90
13462;DHT22;6803;45.264;5.468;2023-08-06T09:24:13;19.00;99.90
13462;DHT22;6803;45.264;5.468;2023-08-06T09:26:46;19.10;99.90
13462;DHT22;6803;45.264;5.468;2023-08-06T09:29:16;19.20;99.90
13462;DHT22;6803;45.264;5.468;2023-08-06T09:31:48;19.10;99.90
13462;DHT22;6803;45.264;5.468;2023-08-06T09:34:22;18.80;99.90
13462;DHT22;6803;45.264;5.468;2023-08-06T09:36:54;18.40;99.90
13462;DHT22;6803;45.264;5.468;2023-08-06T09:39:28;18.30;99.90
13462;DHT22;6803;45.264;5.468;2023-08-06T09:44:38;18.40;99.90
13462;DHT22;6803;45.264;5.468;2023-08-06T09:47:09;18.60;99.90
13462;DHT22;6803;45.264;5.468;2023-08-06T09:49:44;18.90;99.90
13462;DHT22;6803;45.264;5.468;2023-08-06T09:52:15;19.00;99.90
13462;DHT22;6803;45.264;5.468;2023-08-06T09:54:49;19.30;99.90
13462;DHT22;6803;45.264;5.468;2023-08-06T09:57:21;19.30;99.90
13462;DHT22;6803;45.264;5.468;2023-08-06T09:59:53;19.30;99.90
13462;DHT22;6803;45.264;5.468;2023-08-06T10:02:26;19.60;99.90
13462;DHT22;6803;45.264;5.468;2023-08-06T10:04:58;19.60;99.90
13462;DHT22;6803;45.264;5.468;2023-08-06T10:07:31;19.30;99.90
13462;DHT22;6803;45.264;5.468;2023-08-06T10:10:02;19.30;99.90
13462;DHT22;6803;45.264;5.468;2023-08-06T10:12:37;18.90;99.90
13462;DHT22;6803;45.264;5.468;2023-08-06T10:15:10;18.80;99.90
13462;DHT22;6803;45.264;5.468;2023-08-06T10:17:43;18.60;99.90
13462;DHT22;6803;45.264;5.468;2023-08-06T10:20:16;18.20;99.90
13462;DHT22;6803;45.264;5.468;2023-08-06T10:23:00;18.10;99.90
13462;DHT22;6803;45.264;5.468;2023-08-06T10:25:53;18.10;99.90
13462;DHT22;6803;45.264;5.468;2023-08-06T10:28:34;18.30;99.90
13462;DHT22;6803;45.264;5.468;2023-08-06T10:31:06;18.30;99.90
13462;DHT22;6803;45.264;5.468;2023-08-06T10:33:44;17.70;99.90
13462;DHT22;6803;45.264;5.468;2023-08-06T10:36:16;17.50;99.90
13462;DHT22;6803;45.264;5.468;2023-08-06T10:38:48;18.00;99.90
13462;DHT22;6803;45.264;5.468;2023-08-06T10:41:23;17.90;99.90
13462;DHT22;6803;45.264;5.468;2023-08-06T10:44:05;18.00;99.90
13462;DHT22;6803;45.264;5.468;2023-08-06T10:46:38;18.10;99.90
13462;DHT22;6803;45.264;5.468;2023-08-06T10:49:09;17.90;99.90
13462;DHT22;6803;45.264;5.468;2023-08-06T10:51:42;18.20;99.90
13462;DHT22;6803;45.264;5.468;2023-08-06T10:54:14;18.70;99.90
13462;DHT22;6803;45.264;5.468;2023-08-06T10:56:45;18.70;99.90
13462;DHT22;6803;45.264;5.468;2023-08-06T10:59:17;18.70;99.90
13462;DHT22;6803;45.264;5.468;2023-08-06T11:01:49;18.90;99.90
13462;DHT22;6803;45.264;5.468;2023-08-06T11:04:21;18.70;99.90
13462;DHT22;6803;45.264;5.468;2023-08-06T11:06:54;18.80;99.90
13462;DHT22;6803;45.264;5.468;2023-08-06T11:09:24;19.40;99.90
13462;DHT22;6803;45.264;5.468;2023-08-06T11:11:56;19.40;99.90
13462;DHT22;6803;45.264;5.468;2023-08-06T11:14:27;19.70;99.90
13462;DHT22;6803;45.264;5.468;2023-08-06T11:16:57;19.70;99.90
13462;DHT22;6803;45.264;5.468;2023-08-06T11:19:29;19.30;99.90
13462;DHT22;6803;45.264;5.468;2023-08-06T11:22:01;19.20;99.90
13462;DHT22;6803;45.264;5.468;2023-08-06T11:24:34;20.40;99.90
13462;DHT22;6803;45.264;5.468;2023-08-06T11:27:13;20.50;99.90
13462;DHT22;6803;45.264;5.468;2023-08-06T11:29:45;19.80;99.90
13462;DHT22;6803;45.264;5.468;2023-08-06T11:32:16;19.50;99.90
13462;DHT22;6803;45.264;5.468;2023-08-06T11:34:46;19.60;99.90
13462;DHT22;6803;45.264;5.468;2023-08-06T11:37:17;19.40;99.90
13462;DHT22;6803;45.264;5.468;2023-08-06T11:39:50;19.70;99.90
13462;DHT22;6803;45.264;5.468;2023-08-06T11:42:22;20.10;99.90
13462;DHT22;6803;45.264;5.468;2023-08-06T11:44:56;20.00;99.90
13462;DHT22;6803;45.264;5.468;2023-08-06T11:47:28;20.00;99.90
13462;DHT22;6803;45.264;5.468;2023-08-06T11:49:59;19.90;99.90
13462;DHT22;6803;45.264;5.468;2023-08-06T11:52:30;19.30;99.90
13462;DHT22;6803;45.264;5.468;2023-08-06T11:55:03;18.80;99.90
13462;DHT22;6803;45.264;5.468;2023-08-06T11:57:36;18.40;99.90
13462;DHT22;6803;45.264;5.468;2023-08-06T12:00:11;18.30;99.90
13462;DHT22;6803;45.264;5.468;2023-08-06T12:02:43;18.10;99.90
13462;DHT22;6803;45.264;5.468;2023-08-06T12:05:16;17.80;99.90
13462;DHT22;6803;45.264;5.468;2023-08-06T12:07:49;18.00;99.90
13462;DHT22;6803;45.264;5.468;2023-08-06T12:10:21;17.80;99.90
13462;DHT22;6803;45.264;5.468;2023-08-06T12:12:53;18.10;99.90
13462;DHT22;6803;45.264;5.468;2023-08-06T12:15:25;18.60;99.90
13462;DHT22;6803;45.264;5.468;2023-08-06T12:17:58;18.80;99.90
13462;DHT22;6803;45.264;5.468;2023-08-06T12:20:29;18.50;99.90
13462;DHT22;6803;45.264;5.468;2023-08-06T12:23:00;18.90;99.90
13462;DHT22;6803;45.264;5.468;2023-08-06T12:25:31;19.30;99.90
13462;DHT22;6803;45.264;5.468;2023-08-06T12:28:02;19.80;99.90
13462;DHT22;6803;45.264;5.468;2023-08-06T12:30:35;19.40;99.90
13462;DHT22;6803;45.264;5.468;2023-08-06T12:33:06;19.60;99.90
13462;DHT22;6803;45.264;5.468;2023-08-06T12:35:38;19.90;99.90
13462;DHT22;6803;45.264;5.468;2023-08-06T12:38:08;19.90;99.90
13462;DHT22;6803;45.264;5.468;2023-08-06T12:40:39;20.60;99.90
13462;DHT22;6803;45.264;5.468;2023-08-06T12:43:12;20.90;99.90
13462;DHT22;6803;45.264;5.468;2023-08-06T12:45:44;20.70;99.90
13462;DHT22;6803;45.264;5.468;2023-08-06T12:48:16;20.40;99.90
13462;DHT22;6803;45.264;5.468;2023-08-06T12:50:48;19.60;99.90
13462;DHT22;6803;45.264;5.468;2023-08-06T12:53:19;20.10;99.90
13462;DHT22;6803;45.264;5.468;2023-08-06T12:55:52;20.70;99.90
13462;DHT22;6803;45.264;5.468;2023-08-06T12:58:23;21.30;99.90
13462;DHT22;6803;45.264;5.468;2023-08-06T13:00:54;22.70;99.90
13462;DHT22;6803;45.264;5.468;2023-08-06T13:03:25;22.30;99.90
13462;DHT22;6803;45.264;5.468;2023-08-06T13:05:58;21.40;99.90
13462;DHT22;6803;45.264;5.468;2023-08-06T13:08:29;21.30;99.90
13462;DHT22;6803;45.264;5.468;2023-08-06T13:11:00;20.90;99.90
13462;DHT22;6803;45.264;5.468;2023-08-06T13:13:30;20.80;99.90
13462;DHT22;6803;45.264;5.468;2023-08-06T13:16:01;20.80;99.90
13462;DHT22;6803;45.264;5.468;2023-08-06T13:18:32;21.60;99.90
13462;DHT22;6803;45.264;5.468;2023-08-06T13:21:03;21.70;99.90
13462;DHT22;6803;45.264;5.468;2023-08-06T13:23:34;22.20;99.90
13462;DHT22;6803;45.264;5.468;2023-08-06T13:26:04;22.30;99.90
13462;DHT22;6803;45.264;5.468;2023-08-06T13:28:35;22.20;99.90
13462;DHT22;6803;45.264;5.468;2023-08-06T13:31:06;21.10;99.90
13462;DHT22;6803;45.264;5.468;2023-08-06T13:33:37;21.50;99.90
13462;DHT22;6803;45.264;5.468;2023-08-06T13:36:08;21.40;99.90
13462;DHT22;6803;45.264;5.468;2023-08-06T13:38:39;21.40;99.90
13462;DHT22;6803;45.264;5.468;2023-08-06T13:41:09;21.50;99.90
13462;DHT22;6803;45.264;5.468;2023-08-06T13:43:40;21.60;99.90
13462;DHT22;6803;45.264;5.468;2023-08-06T13:46:12;21.60;99.90
13462;DHT22;6803;45.264;5.468;2023-08-06T13:48:45;21.40;99.90
13462;DHT22;6803;45.264;5.468;2023-08-06T13:51:16;21.50;99.90
13462;DHT22;6803;45.264;5.468;2023-08-06T13:53:47;22.00;99.90
13462;DHT22;6803;45.264;5.468;2023-08-06T13:56:18;23.00;99.90
13462;DHT22;6803;45.264;5.468;2023-08-06T13:58:48;22.20;99.90
13462;DHT22;6803;45.264;5.468;2023-08-06T14:01:19;21.50;99.90
13462;DHT22;6803;45.264;5.468;2023-08-06T14:03:53;22.00;99.90
13462;DHT22;6803;45.264;5.468;2023-08-06T14:06:23;21.90;99.90
13462;DHT22;6803;45.264;5.468;2023-08-06T14:08:54;23.00;99.90
13462;DHT22;6803;45.264;5.468;2023-08-06T14:11:25;23.40;99.90
13462;DHT22;6803;45.264;5.468;2023-08-06T14:13:56;23.10;99.90
13462;DHT22;6803;45.264;5.468;2023-08-06T14:16:26;22.00;99.90
13462;DHT22;6803;45.264;5.468;2023-08-06T14:18:57;21.10;99.90
13462;DHT22;6803;45.264;5.468;2023-08-06T14:21:28;21.40;99.90
13462;DHT22;6803;45.264;5.468;2023-08-06T14:23:59;21.40;99.90
13462;DHT22;6803;45.264;5.468;2023-08-06T14:26:30;21.40;99.90
13462;DHT22;6803;45.264;5.468;2023-08-06T14:29:01;22.00;99.90
13462;DHT22;6803;45.264;5.468;2023-08-06T14:31:32;23.30;99.90
13462;DHT22;6803;45.264;5.468;2023-08-06T14:34:03;23.10;99.90
13462;DHT22;6803;45.264;5.468;2023-08-06T14:36:34;22.50;99.90
13462;DHT22;6803;45.264;5.468;2023-08-06T14:39:05;22.50;99.90
13462;DHT22;6803;45.264;5.468;2023-08-06T14:41:35;22.20;99.90
13462;DHT22;6803;45.264;5.468;2023-08-06T14:44:06;21.40;99.90
13462;DHT22;6803;45.264;5.468;2023-08-06T14:46:37;22.80;99.90
13462;DHT22;6803;45.264;5.468;2023-08-06T14:49:08;23.10;99.90
13462;DHT22;6803;45.264;5.468;2023-08-06T14:51:39;23.10;99.90
13462;DHT22;6803;45.264;5.468;2023-08-06T14:54:10;22.80;99.90
13462;DHT22;6803;45.264;5.468;2023-08-06T14:56:40;22.90;99.90
13462;DHT22;6803;45.264;5.468;2023-08-06T14:59:11;22.70;99.90
13462;DHT22;6803;45.264;5.468;2023-08-06T15:01:42;21.00;99.90
13462;DHT22;6803;45.264;5.468;2023-08-06T15:04:13;21.10;99.90
13462;DHT22;6803;45.264;5.468;2023-08-06T15:06:43;21.20;99.90
13462;DHT22;6803;45.264;5.468;2023-08-06T15:09:14;22.00;99.90
13462;DHT22;6803;45.264;5.468;2023-08-06T15:11:45;22.80;99.90
13462;DHT22;6803;45.264;5.468;2023-08-06T15:14:16;23.70;99.90
13462;DHT22;6803;45.264;5.468;2023-08-06T15:16:48;24.30;99.90
13462;DHT22;6803;45.264;5.468;2023-08-06T15:19:21;24.00;99.90
13462;DHT22;6803;45.264;5.468;2023-08-06T15:21:52;22.70;99.90
13462;DHT22;6803;45.264;5.468;2023-08-06T15:24:23;22.70;99.90
13462;DHT22;6803;45.264;5.468;2023-08-06T15:26:53;23.30;99.90
13462;DHT22;6803;45.264;5.468;2023-08-06T15:29:25;23.50;99.90
13462;DHT22;6803;45.264;5.468;2023-08-06T15:31:58;23.10;99.90
13462;DHT22;6803;45.264;5.468;2023-08-06T15:34:29;23.10;99.90
13462;DHT22;6803;45.264;5.468;2023-08-06T15:37:00;22.80;99.90
13462;DHT22;6803;45.264;5.468;2023-08-06T15:39:33;23.00;99.90
13462;DHT22;6803;45.264;5.468;2023-08-06T15:42:05;22.90;99.90
13462;DHT22;6803;45.264;5.468;2023-08-06T15:44:37;22.60;99.90
13462;DHT22;6803;45.264;5.468;2023-08-06T15:47:08;21.90;99.90
13462;DHT22;6803;45.264;5.468;2023-08-06T15:49:40;21.20;99.90
13462;DHT22;6803;45.264;5.468;2023-08-06T15:52:12;21.70;99.90
13462;DHT22;6803;45.264;5.468;2023-08-06T15:54:44;21.40;99.90
13462;DHT22;6803;45.264;5.468;2023-08-06T15:57:16;21.00;99.90
13462;DHT22;6803;45.264;5.468;2023-08-06T15:59:47;20.80;99.90
13462;DHT22;6803;45.264;5.468;2023-08-06T16:02:19;20.70;99.90
13462;DHT22;6803;45.264;5.468;2023-08-06T16:04:51;20.40;99.90
13462;DHT22;6803;45.264;5.468;2023-08-06T16:07:23;19.90;99.90
13462;DHT22;6803;45.264;5.468;2023-08-06T16:09:55;19.80;99.90
13462;DHT22;6803;45.264;5.468;2023-08-06T16:12:28;19.70;99.90
13462;DHT22;6803;45.264;5.468;2023-08-06T16:14:59;19.70;99.90
13462;DHT22;6803;45.264;5.468;2023-08-06T16:17:30;19.80;99.90
13462;DHT22;6803;45.264;5.468;2023-08-06T16:20:01;19.80;99.90